Flight Track Log - Related Links

Times and Time Zones

All times are in EDT time to prevent confusion due to time zone crossing. See the N80HB flight status page for this flight to view local times or setup timezone preferences in your user account.

Time Position Orientation Groundspeed Altitude Reporting Facility
EDT Latitude Longitude Course Direction KTS MPH feet Rate Location/Type
Wed 08:03:48 AM 53.3333 -60.3667 61° Northeast 160 184 1,300  Level Gander Center
Wed 08:04:48 AM 53.3667 -60.2667 63° Northeast 250 288 4,500 3,200 Climbing Gander Center
Wed 08:05:48 AM 53.4000 -60.1833 56° Northeast 260 299 7,700 3,200 Climbing Gander Center
Wed 08:06:48 AM 53.4500 -60.1333 31° Northeast 260 299 10,900 3,200 Climbing Gander Center
Wed 08:08:00 AM 53.5579 -60.0257 31° Northeast  Level FlightAware Approximate
Wed 08:15:00 AM 54.0589 -59.1225 42° Northeast  Level Estimated
Wed 08:16:00 AM 54.1558 -59.0554 22° Northeast  Level FlightAware Approximate
Wed 08:17:00 AM 54.2266 -58.9240 41° Northeast  Level Estimated
Wed 08:18:00 AM 54.2972 -58.7921 43° Northeast  Level Estimated
Wed 08:19:00 AM 54.3677 -58.6597 41° Northeast  Level Estimated
Wed 08:20:00 AM 54.4381 -58.5269 41° Northeast  Level Estimated
Wed 08:21:00 AM 54.5326 -58.4502 25° Northeast  Level FlightAware Approximate
Wed 08:22:00 AM 54.6272 -58.3732 25° Northeast  Level FlightAware Approximate
Wed 08:23:00 AM 54.6969 -58.2386 43° Northeast  Level Estimated
Wed 08:24:00 AM 54.7793 -58.1271 38° Northeast  Level FlightAware Approximate
Wed 08:25:00 AM 54.8615 -58.0151 38° Northeast  Level FlightAware Approximate
Wed 08:26:00 AM 54.9437 -57.9027 38° Northeast  Level FlightAware Approximate
Wed 08:27:00 AM 55.0127 -57.7659 45° Northeast  Level Estimated
Wed 08:28:00 AM 55.0816 -57.6286 43° Northeast  Level Estimated
Wed 08:29:00 AM 55.1628 -57.5135 39° Northeast  Level FlightAware Approximate
Wed 08:30:00 AM 55.2439 -57.3980 39° Northeast  Level FlightAware Approximate
Wed 08:31:00 AM 55.3250 -57.2821 39° Northeast  Level FlightAware Approximate
Wed 08:32:00 AM 55.3931 -57.1425 37° Northeast  Level Estimated
Wed 08:33:00 AM 55.4610 -57.0025 54° Northeast  Level Estimated
Wed 08:34:00 AM 55.5247 -56.8562 52° Northeast  Level FlightAware Approximate
Wed 08:35:00 AM 55.5882 -56.7094 53° Northeast  Level FlightAware Approximate
Wed 08:36:00 AM 55.6515 -56.5621 53° Northeast  Level FlightAware Approximate
Wed 08:37:00 AM 55.7147 -56.4143 53° Northeast  Level FlightAware Approximate
Wed 08:38:00 AM 55.7776 -56.2661 53° Northeast  Level FlightAware Approximate
Wed 08:39:00 AM 55.8404 -56.1174 53° Northeast  Level FlightAware Approximate
Wed 08:40:00 AM 55.9030 -55.9682 53° Northeast  Level FlightAware Approximate
Wed 08:41:00 AM 55.9655 -55.8185 53° Northeast  Level FlightAware Approximate
Wed 08:42:00 AM 56.0277 -55.6683 53° Northeast  Level FlightAware Approximate
Wed 08:43:00 AM 56.0898 -55.5177 54° Northeast  Level FlightAware Approximate
Wed 08:44:00 AM 56.1517 -55.3666 54° Northeast  Level FlightAware Approximate
Wed 08:45:00 AM 56.2134 -55.2149 54° Northeast  Level FlightAware Approximate
Wed 08:46:00 AM 56.2794 -55.0690 56° Northeast  Level Estimated
Wed 08:47:00 AM 56.3380 -54.9129 56° Northeast  Level FlightAware Approximate
Wed 08:48:00 AM 56.3963 -54.7563 56° Northeast  Level FlightAware Approximate
Wed 08:49:00 AM 56.4545 -54.5993 56° Northeast  Level FlightAware Approximate
Wed 08:50:00 AM 56.5125 -54.4417 56° Northeast  Level FlightAware Approximate
Wed 08:51:00 AM 56.5703 -54.2837 56° Northeast  Level FlightAware Approximate
Wed 08:52:00 AM 56.6278 -54.1253 57° Northeast  Level FlightAware Approximate
Wed 08:53:00 AM 56.6852 -53.9663 57° Northeast  Level FlightAware Approximate
Wed 08:54:00 AM 56.7424 -53.8068 57° Northeast  Level FlightAware Approximate
Wed 08:55:00 AM 56.7994 -53.6469 57° Northeast  Level FlightAware Approximate
Wed 08:56:00 AM 56.8561 -53.4864 57° Northeast  Level FlightAware Approximate
Wed 08:57:00 AM 56.9127 -53.3255 57° Northeast  Level FlightAware Approximate
Wed 08:58:00 AM 56.9690 -53.1641 57° Northeast  Level FlightAware Approximate
Wed 08:59:00 AM 57.0252 -53.0022 57° Northeast  Level FlightAware Approximate
Wed 09:00:00 AM 57.0811 -52.8398 58° Northeast  Level FlightAware Approximate
Wed 09:01:00 AM 57.1368 -52.6769 58° Northeast  Level FlightAware Approximate
Wed 09:02:00 AM 57.1923 -52.5136 58° Northeast  Level FlightAware Approximate
Wed 09:03:00 AM 57.2476 -52.3497 58° Northeast  Level FlightAware Approximate
Wed 09:04:00 AM 57.3027 -52.1854 58° Northeast  Level FlightAware Approximate
Wed 09:05:00 AM 57.3576 -52.0205 58° Northeast  Level FlightAware Approximate
Wed 09:06:00 AM 57.4122 -51.8552 58° Northeast  Level FlightAware Approximate
Wed 09:07:00 AM 57.4666 -51.6894 59° Northeast  Level FlightAware Approximate
Wed 09:08:00 AM 57.5209 -51.5231 59° Northeast  Level FlightAware Approximate
Wed 09:09:00 AM 57.5749 -51.3563 59° Northeast  Level FlightAware Approximate
Wed 09:10:00 AM 57.6286 -51.1889 59° Northeast  Level FlightAware Approximate
Wed 09:11:00 AM 57.6822 -51.0211 59° Northeast  Level FlightAware Approximate
Wed 09:12:00 AM 57.7355 -50.8529 59° Northeast  Level FlightAware Approximate
Wed 09:13:00 AM 57.7886 -50.6841 59° Northeast  Level FlightAware Approximate
Wed 09:14:00 AM 57.8415 -50.5148 60° Northeast  Level FlightAware Approximate
Wed 09:15:00 AM 57.8942 -50.3450 60° Northeast  Level FlightAware Approximate
Wed 09:16:00 AM 57.9466 -50.1747 60° Northeast  Level FlightAware Approximate
Wed 09:17:00 AM 58.0079 -50.0150 55° Northeast  Level Estimated
Wed 09:18:00 AM 58.0674 -49.8526 55° Northeast  Level FlightAware Approximate
Wed 09:19:00 AM 58.1267 -49.6897 55° Northeast  Level FlightAware Approximate
Wed 09:20:00 AM 58.1857 -49.5262 56° Northeast  Level FlightAware Approximate
Wed 09:21:00 AM 58.2445 -49.3621 56° Northeast  Level FlightAware Approximate
Wed 09:22:00 AM 58.3032 -49.1976 56° Northeast  Level FlightAware Approximate
Wed 09:23:00 AM 58.3616 -49.0324 56° Northeast  Level FlightAware Approximate
Wed 09:24:00 AM 58.4198 -48.8667 56° Northeast  Level FlightAware Approximate
Wed 09:25:00 AM 58.4778 -48.7005 56° Northeast  Level FlightAware Approximate
Wed 09:26:00 AM 58.5355 -48.5338 56° Northeast  Level FlightAware Approximate
Wed 09:27:00 AM 58.5931 -48.3664 57° Northeast  Level FlightAware Approximate
Wed 09:28:00 AM 58.6504 -48.1986 57° Northeast  Level FlightAware Approximate
Wed 09:29:00 AM 58.7076 -48.0302 57° Northeast  Level FlightAware Approximate
Wed 09:30:00 AM 58.7645 -47.8612 57° Northeast  Level FlightAware Approximate
Wed 09:31:00 AM 58.8211 -47.6916 57° Northeast  Level FlightAware Approximate
Wed 09:32:00 AM 58.8776 -47.5216 57° Northeast  Level FlightAware Approximate
Wed 09:33:00 AM 58.9338 -47.3509 57° Northeast  Level FlightAware Approximate
Wed 09:34:00 AM 58.9898 -47.1797 58° Northeast  Level FlightAware Approximate
Wed 09:35:00 AM 59.0456 -47.0080 58° Northeast  Level FlightAware Approximate
Wed 09:36:00 AM 59.1011 -46.8357 58° Northeast  Level FlightAware Approximate
Wed 09:37:00 AM 59.1565 -46.6628 58° Northeast  Level FlightAware Approximate
Wed 09:38:00 AM 59.2116 -46.4894 58° Northeast  Level FlightAware Approximate
Wed 09:39:00 AM 59.2664 -46.3154 58° Northeast  Level FlightAware Approximate
Wed 09:40:00 AM 59.3210 -46.1409 58° Northeast  Level FlightAware Approximate
Wed 09:41:00 AM 59.3754 -45.9658 59° Northeast  Level FlightAware Approximate
Wed 09:42:00 AM 59.4296 -45.7901 59° Northeast  Level FlightAware Approximate
Wed 09:43:00 AM 59.4835 -45.6139 59° Northeast  Level FlightAware Approximate
Wed 09:44:00 AM 59.5372 -45.4371 59° Northeast  Level FlightAware Approximate
Wed 09:45:00 AM 59.5906 -45.2597 59° Northeast  Level FlightAware Approximate
Wed 09:46:00 AM 59.6438 -45.0818 59° Northeast  Level FlightAware Approximate
Wed 09:47:00 AM 59.6968 -44.9033 59° Northeast  Level FlightAware Approximate
Wed 09:48:00 AM 59.7495 -44.7243 60° Northeast  Level FlightAware Approximate
Wed 09:49:00 AM 59.8020 -44.5447 60° Northeast  Level FlightAware Approximate
Wed 09:50:00 AM 59.8542 -44.3645 60° Northeast  Level FlightAware Approximate
Wed 09:51:00 AM 59.9062 -44.1838 60° Northeast  Level FlightAware Approximate
Wed 09:52:00 AM 59.9579 -44.0025 60° Northeast  Level FlightAware Approximate
Wed 09:53:00 AM 60.0094 -43.8206 60° Northeast  Level FlightAware Approximate
Wed 09:54:00 AM 60.0606 -43.6382 61° Northeast  Level FlightAware Approximate
Wed 09:55:00 AM 60.1116 -43.4552 61° Northeast  Level FlightAware Approximate
Wed 09:56:00 AM 60.1623 -43.2716 61° Northeast  Level FlightAware Approximate
Wed 09:57:00 AM 60.2128 -43.0875 61° Northeast  Level FlightAware Approximate
Wed 09:58:00 AM 60.2630 -42.9028 61° Northeast  Level FlightAware Approximate
Wed 09:59:00 AM 60.3130 -42.7175 61° Northeast  Level FlightAware Approximate
Wed 10:00:00 AM 60.3627 -42.5317 62° Northeast  Level FlightAware Approximate
Wed 10:01:00 AM 60.4121 -42.3453 62° Northeast  Level FlightAware Approximate
Wed 10:02:00 AM 60.4613 -42.1583 62° Northeast  Level FlightAware Approximate
Wed 10:03:00 AM 60.5102 -41.9708 62° Northeast  Level FlightAware Approximate
Wed 10:04:00 AM 60.5589 -41.7827 62° Northeast  Level FlightAware Approximate
Wed 10:05:00 AM 60.6073 -41.5940 62° Northeast  Level FlightAware Approximate
Wed 10:06:00 AM 60.6554 -41.4048 63° Northeast  Level FlightAware Approximate
Wed 10:07:00 AM 60.7032 -41.2150 63° Northeast  Level FlightAware Approximate
Wed 10:08:00 AM 60.7508 -41.0247 63° Northeast  Level FlightAware Approximate
Wed 10:09:00 AM 60.7981 -40.8338 63° Northeast  Level FlightAware Approximate
Wed 10:10:00 AM 60.8452 -40.6423 63° Northeast  Level FlightAware Approximate
Wed 10:11:00 AM 60.8919 -40.4502 63° Northeast  Level FlightAware Approximate
Wed 10:12:00 AM 60.9384 -40.2576 64° Northeast  Level FlightAware Approximate
Wed 10:13:00 AM 60.9877 -40.0676 63° Northeast  Level Estimated
Wed 10:14:00 AM 61.0357 -39.8760 63° Northeast  Level FlightAware Approximate
Wed 10:15:00 AM 61.0835 -39.6839 63° Northeast  Level FlightAware Approximate
Wed 10:16:00 AM 61.1310 -39.4912 63° Northeast  Level FlightAware Approximate
Wed 10:17:00 AM 61.1782 -39.2979 63° Northeast  Level FlightAware Approximate
Wed 10:18:00 AM 61.2252 -39.1040 63° Northeast  Level FlightAware Approximate
Wed 10:19:00 AM 61.2719 -38.9095 63° Northeast  Level FlightAware Approximate
Wed 10:20:00 AM 61.3183 -38.7145 64° Northeast  Level FlightAware Approximate
Wed 10:21:00 AM 61.3644 -38.5189 64° Northeast  Level FlightAware Approximate
Wed 10:22:00 AM 61.4102 -38.3227 64° Northeast  Level FlightAware Approximate
Wed 10:23:00 AM 61.4558 -38.1260 64° Northeast  Level FlightAware Approximate
Wed 10:24:00 AM 61.5011 -37.9286 64° Northeast  Level FlightAware Approximate
Wed 10:25:00 AM 61.5461 -37.7307 64° Northeast  Level FlightAware Approximate
Wed 10:26:00 AM 61.5908 -37.5323 65° Northeast  Level FlightAware Approximate
Wed 10:27:00 AM 61.6352 -37.3332 65° Northeast  Level FlightAware Approximate
Wed 10:28:00 AM 61.6793 -37.1336 65° Northeast  Level FlightAware Approximate
Wed 10:29:00 AM 61.7231 -36.9334 65° Northeast  Level FlightAware Approximate
Wed 10:30:00 AM 61.7667 -36.7326 65° Northeast  Level FlightAware Approximate
Wed 10:31:00 AM 61.8099 -36.5313 65° Northeast  Level FlightAware Approximate
Wed 10:32:00 AM 61.8528 -36.3294 66° East  Level FlightAware Approximate
Wed 10:33:00 AM 61.8955 -36.1270 66° East  Level FlightAware Approximate
Wed 10:34:00 AM 61.9378 -35.9240 66° East  Level FlightAware Approximate
Wed 10:35:00 AM 61.9799 -35.7204 66° East  Level FlightAware Approximate
Wed 10:36:00 AM 62.0216 -35.5162 66° East  Level FlightAware Approximate
Wed 10:37:00 AM 62.0631 -35.3115 67° East  Level FlightAware Approximate
Wed 10:38:00 AM 62.1043 -35.1063 67° East  Level FlightAware Approximate
Wed 10:39:00 AM 62.1451 -34.9005 67° East  Level FlightAware Approximate
Wed 10:40:00 AM 62.1856 -34.6941 67° East  Level FlightAware Approximate
Wed 10:41:00 AM 62.2258 -34.4872 67° East  Level FlightAware Approximate
Wed 10:42:00 AM 62.2658 -34.2797 67° East  Level FlightAware Approximate
Wed 10:43:00 AM 62.3054 -34.0717 68° East  Level FlightAware Approximate
Wed 10:44:00 AM 62.3447 -33.8631 68° East  Level FlightAware Approximate
Wed 10:45:00 AM 62.3837 -33.6540 68° East  Level FlightAware Approximate
Wed 10:46:00 AM 62.4223 -33.4444 68° East  Level FlightAware Approximate
Wed 10:47:00 AM 62.4607 -33.2342 68° East  Level FlightAware Approximate
Wed 10:48:00 AM 62.4987 -33.0235 69° East  Level FlightAware Approximate
Wed 10:49:00 AM 62.5364 -32.8122 69° East  Level FlightAware Approximate
Wed 10:50:00 AM 62.5738 -32.6004 69° East  Level FlightAware Approximate
Wed 10:51:00 AM 62.6109 -32.3881 69° East  Level FlightAware Approximate
Wed 10:52:00 AM 62.6477 -32.1752 69° East  Level FlightAware Approximate
Wed 10:53:00 AM 62.6841 -31.9618 70° East  Level FlightAware Approximate
Wed 10:54:00 AM 62.7202 -31.7479 70° East  Level FlightAware Approximate
Wed 10:55:00 AM 62.7560 -31.5335 70° East  Level FlightAware Approximate
Wed 10:56:00 AM 62.7915 -31.3185 70° East  Level FlightAware Approximate
Wed 10:57:00 AM 62.8266 -31.1031 70° East  Level FlightAware Approximate
Wed 10:58:00 AM 62.8614 -30.8871 70° East  Level FlightAware Approximate
Wed 10:59:00 AM 62.8958 -30.6706 71° East  Level FlightAware Approximate
Wed 11:00:00 AM 62.9300 -30.4536 71° East  Level FlightAware Approximate
Wed 11:01:00 AM 62.9638 -30.2361 71° East  Level FlightAware Approximate
Wed 11:02:00 AM 62.9995 -30.0199 80° East  Level Estimated
Wed 11:03:00 AM 63.0349 -29.8031 69° East  Level Estimated
Wed 11:04:00 AM 63.0681 -29.5844 71° East  Level FlightAware Approximate
Wed 11:05:00 AM 63.1010 -29.3652 72° East  Level FlightAware Approximate
Wed 11:06:00 AM 63.1335 -29.1455 72° East  Level FlightAware Approximate
Wed 11:07:00 AM 63.1678 -28.9268 71° East  Level Estimated
Wed 11:08:00 AM 63.2027 -28.7083 70° East  Level FlightAware Approximate
Wed 11:09:00 AM 63.2373 -28.4894 71° East  Level FlightAware Approximate
Wed 11:10:00 AM 63.2715 -28.2699 71° East  Level FlightAware Approximate
Wed 11:11:00 AM 63.3054 -28.0499 71° East  Level FlightAware Approximate
Wed 11:12:00 AM 63.3378 -27.8286 71° East  Level Estimated
Wed 11:13:00 AM 63.3714 -27.6078 71° East  Level FlightAware Approximate
Wed 11:14:00 AM 63.4047 -27.3866 71° East  Level FlightAware Approximate
Wed 11:15:00 AM 63.4376 -27.1649 72° East  Level FlightAware Approximate
Wed 11:16:00 AM 63.4683 -26.9413 77° East  Level Estimated
Wed 11:17:00 AM 63.4987 -26.7173 70° East  Level Estimated
Wed 11:18:00 AM 63.5288 -26.4928 70° East  Level Estimated
Wed 11:19:00 AM 63.5613 -26.2698 72° East  Level FlightAware Approximate
Wed 11:20:00 AM 63.5904 -26.0442 76° East  Level Estimated
Wed 11:21:00 AM 63.6150 -25.8156 76° East  Level FlightAware Approximate
Wed 11:22:00 AM 63.6392 -25.5867 77° East  Level FlightAware Approximate
Wed 11:23:00 AM 63.6679 -25.3602 74° East  Level Estimated
Wed 11:24:00 AM 63.6951 -25.1325 75° East  Level FlightAware Approximate
Wed 11:25:00 AM 63.7219 -24.9044 75° East  Level FlightAware Approximate
Wed 11:26:00 AM 63.7483 -24.6758 75° East  Level FlightAware Approximate
Wed 11:27:00 AM 63.7760 -24.4478 72° East  Level Estimated
Wed 11:28:00 AM 63.8063 -24.2213 73° East  Level FlightAware Approximate
Wed 11:29:00 AM 63.8329 -23.9922 76° East  Level Estimated
Wed 11:30:00 AM 63.8581 -23.7620 76° East  Level FlightAware Approximate
Wed 11:31:00 AM 63.8829 -23.5314 76° East  Level FlightAware Approximate
Wed 11:32:00 AM 63.9073 -23.3004 76° East  Level FlightAware Approximate
Wed 11:33:00 AM 63.9335 -23.0702 80° East  Level Estimated
Wed 11:34:00 AM 63.9508 -22.8355 80° East  Level FlightAware Approximate
Wed 11:35:00 AM 63.9667 -22.6167 80° East  Level FlightAware Approximate
Wed 11:36:00 AM 63.9850 -22.6056 15° North  Level Estimated
Wed 11:37:00 AM 63.9850 -22.6056 North  Level Estimated
Wed 11:38:00 AM 63.9850 -22.6056 North  Level Estimated
Wed 11:39:00 AM 63.9850 -22.6056 North  Level Estimated
Wed 11:40:00 AM 63.9850 -22.6056 North  Level Estimated
Wed 11:41:00 AM 63.9850 -22.6056 North  Level Estimated
Wed 11:42:00 AM 63.9850 -22.6056 North  Level Estimated
Wed 11:43:00 AM 63.9850 -22.6056 North  Level Estimated
Wed 11:44:00 AM 63.9850 -22.6056 North  Level Estimated
Wed 11:45:00 AM 63.9850 -22.6056 North  Level Estimated
Wed 11:46:00 AM 63.9850 -22.6056 North  Level Estimated
Wed 11:47:00 AM 63.9850 -22.6056 North  Level Estimated
Wed 11:48:00 AM 63.9850 -22.6056 North  Level Estimated
Wed 11:49:00 AM 63.9850 -22.6056 North  Level Estimated
Wed 11:50:00 AM 63.9850 -22.6056 North  Level Estimated
Wed 11:51:00 AM 63.9850 -22.6056 North  Level Estimated

Login

Don't have an account? Register now (free) for customized features, flight alerts, and more!